createdAt,value
2023-05-14T00:00:41.051Z,59.46
2023-05-14T00:01:46.520Z,59.65
2023-05-14T00:02:48.069Z,59.43
2023-05-14T00:03:49.812Z,59.42
2023-05-14T00:04:51.277Z,59.49
2023-05-14T00:05:52.737Z,59.21
2023-05-14T00:06:56.731Z,59.48
2023-05-14T00:07:58.242Z,59.79
2023-05-14T00:08:59.812Z,59.61
2023-05-14T00:10:03.922Z,59.64
2023-05-14T00:11:05.407Z,59.84
2023-05-14T00:12:07.046Z,59.54
2023-05-14T00:13:08.540Z,59.72
2023-05-14T00:14:09.995Z,59.71
2023-05-14T00:15:13.958Z,59.55
2023-05-14T00:16:16.039Z,59.56
2023-05-14T00:17:17.633Z,59.34
2023-05-14T00:18:19.150Z,59.65
2023-05-14T00:19:20.882Z,59.41
2023-05-14T00:20:22.574Z,59.14
2023-05-14T00:21:24.358Z,59.30
2023-05-14T00:22:26.886Z,59.14
2023-05-14T00:23:30.596Z,59.49
2023-05-14T00:24:32.022Z,59.08
2023-05-14T00:25:33.540Z,58.93
2023-05-14T00:26:35.032Z,58.77
2023-05-14T00:27:38.863Z,58.87
2023-05-14T00:28:40.514Z,58.91
2023-05-14T00:29:42.010Z,58.76
2023-05-14T00:30:43.470Z,58.66
2023-05-14T00:31:47.494Z,58.60
2023-05-14T00:32:49.183Z,58.56
2023-05-14T00:33:50.802Z,58.79
2023-05-14T00:34:52.266Z,59.00
2023-05-14T00:35:53.713Z,58.60
2023-05-14T00:36:55.214Z,58.80
2023-05-14T00:37:56.760Z,58.61
2023-05-14T00:38:58.279Z,58.38
2023-05-14T00:39:59.721Z,58.50
2023-05-14T00:41:01.293Z,58.35
2023-05-14T00:42:02.811Z,58.08
2023-05-14T00:43:04.348Z,58.33
2023-05-14T00:44:06.001Z,58.04
2023-05-14T00:45:08.164Z,58.16
2023-05-14T00:46:12.437Z,58.32
2023-05-14T00:47:14.169Z,58.40
2023-05-14T00:48:18.191Z,58.30
2023-05-14T00:49:19.910Z,58.43
2023-05-14T00:50:24.017Z,58.46
2023-05-14T00:51:28.180Z,58.32
2023-05-14T00:52:29.784Z,58.33
2023-05-14T00:53:31.546Z,58.03
2023-05-14T00:54:33.094Z,58.05
2023-05-14T00:55:36.778Z,58.10
2023-05-14T00:56:38.394Z,58.29
2023-05-14T00:57:42.771Z,57.98
2023-05-14T00:58:44.347Z,58.00
2023-05-14T00:59:48.220Z,58.15
2023-05-14T01:00:51.905Z,58.08
2023-05-14T01:01:53.440Z,57.74
2023-05-14T01:02:55.163Z,57.90
2023-05-14T01:03:58.039Z,57.89
2023-05-14T01:04:59.700Z,57.79
2023-05-14T01:06:13.471Z,57.61
2023-05-14T01:07:26.098Z,58.00
2023-05-14T01:08:32.605Z,58.15
2023-05-14T01:09:43.806Z,57.90
2023-05-14T01:10:52.771Z,58.07
2023-05-14T01:11:54.260Z,58.18
2023-05-14T01:13:05.239Z,58.13
2023-05-14T01:14:26.944Z,58.25
2023-05-14T01:15:30.880Z,58.06
2023-05-14T01:16:33.800Z,58.24
2023-05-14T01:17:39.046Z,58.13
2023-05-14T01:18:41.472Z,58.16
2023-05-14T01:19:43.853Z,58.32
2023-05-14T01:20:53.626Z,58.08
2023-05-14T01:21:55.279Z,58.29
2023-05-14T01:22:56.880Z,58.40
2023-05-14T01:23:58.380Z,58.21
2023-05-14T01:25:02.193Z,58.54
2023-05-14T01:26:06.308Z,58.59
2023-05-14T01:27:17.407Z,58.52
2023-05-14T01:28:20.320Z,58.63
2023-05-14T01:29:22.965Z,58.67
2023-05-14T01:30:38.128Z,58.72
2023-05-14T01:31:44.088Z,58.42
2023-05-14T01:32:48.061Z,58.41
2023-05-14T01:33:49.929Z,58.44
2023-05-14T01:34:52.230Z,58.46
2023-05-14T01:35:58.466Z,58.21
2023-05-14T01:37:00.696Z,58.40
2023-05-14T01:38:04.856Z,58.42
2023-05-14T01:39:09.698Z,58.44
2023-05-14T01:40:14.472Z,58.44
2023-05-14T01:41:16.478Z,58.63
2023-05-14T01:42:18.186Z,58.38
2023-05-14T01:43:20.442Z,58.50
2023-05-14T01:44:22.226Z,58.58
2023-05-14T01:45:24.220Z,58.38
2023-05-14T01:46:30.887Z,58.58
2023-05-14T01:47:32.504Z,58.74
2023-05-14T01:48:34.047Z,58.50
2023-05-14T01:49:37.193Z,58.40
2023-05-14T01:50:38.758Z,58.43
2023-05-14T01:51:40.380Z,58.33
2023-05-14T01:52:42.371Z,58.75
2023-05-14T01:53:45.327Z,58.56
2023-05-14T01:54:49.192Z,58.56
2023-05-14T01:55:52.799Z,58.59
2023-05-14T01:56:56.933Z,58.33
2023-05-14T01:57:58.680Z,58.42
2023-05-14T01:59:00.278Z,58.39
2023-05-14T02:00:02.332Z,58.60
2023-05-14T02:01:04.261Z,58.65
2023-05-14T02:02:07.993Z,58.57
2023-05-14T02:03:16.382Z,58.50
2023-05-14T02:04:21.251Z,58.38
2023-05-14T02:05:23.843Z,58.56
2023-05-14T02:06:29.112Z,58.50
2023-05-14T02:07:30.796Z,58.69
2023-05-14T02:08:32.373Z,58.61
2023-05-14T02:09:34.184Z,58.49
2023-05-14T02:10:35.685Z,58.43
2023-05-14T02:11:37.168Z,58.54
2023-05-14T02:12:41.192Z,58.63
2023-05-14T02:13:42.787Z,58.50
2023-05-14T02:14:46.530Z,58.66
2023-05-14T02:15:48.028Z,58.70
2023-05-14T02:16:50.972Z,58.83
2023-05-14T02:17:52.498Z,58.50
2023-05-14T02:18:54.222Z,58.54
2023-05-14T02:19:55.766Z,58.27
2023-05-14T02:20:57.894Z,58.22
2023-05-14T02:22:00.355Z,58.44
2023-05-14T02:23:02.116Z,58.38
2023-05-14T02:24:03.928Z,58.31
2023-05-14T02:25:05.664Z,58.21
2023-05-14T02:26:08.442Z,58.38
2023-05-14T02:27:09.920Z,58.23
2023-05-14T02:28:11.556Z,58.26
2023-05-14T02:29:13.200Z,58.18
2023-05-14T02:30:14.768Z,58.44
2023-05-14T02:31:19.032Z,58.34
2023-05-14T02:32:20.644Z,58.24
2023-05-14T02:33:22.216Z,58.29
2023-05-14T02:34:23.983Z,58.45
2023-05-14T02:35:25.553Z,58.30
2023-05-14T02:36:26.976Z,58.09
2023-05-14T02:37:28.652Z,58.32
2023-05-14T02:38:30.179Z,58.32
2023-05-14T02:39:31.686Z,58.09
2023-05-14T02:40:36.593Z,58.34
2023-05-14T02:41:38.059Z,58.33
2023-05-14T02:42:40.400Z,58.42
2023-05-14T02:43:41.912Z,58.17
2023-05-14T02:44:43.429Z,58.24
2023-05-14T02:45:45.762Z,58.21
2023-05-14T02:46:47.538Z,58.23
2023-05-14T02:47:49.468Z,58.38
2023-05-14T02:48:54.088Z,58.40
2023-05-14T02:49:55.715Z,58.58
2023-05-14T02:50:57.198Z,58.52
2023-05-14T02:52:00.823Z,58.30
2023-05-14T02:53:02.430Z,58.60
2023-05-14T02:54:03.972Z,58.34
2023-05-14T02:55:08.199Z,58.44
2023-05-14T02:56:09.853Z,58.59
2023-05-14T02:57:11.329Z,58.45
2023-05-14T02:58:15.338Z,58.72
2023-05-14T02:59:16.937Z,58.45
2023-05-14T03:00:19.164Z,58.59
2023-05-14T03:01:23.414Z,58.57
2023-05-14T03:02:25.361Z,58.60
2023-05-14T03:03:28.975Z,58.30
2023-05-14T03:04:31.178Z,58.36
2023-05-14T03:05:33.224Z,58.28
2023-05-14T03:06:34.813Z,58.25
2023-05-14T03:07:38.740Z,58.13
2023-05-14T03:08:43.261Z,58.08
2023-05-14T03:09:47.103Z,58.08
2023-05-14T03:10:48.627Z,57.97
2023-05-14T03:11:52.752Z,58.17
2023-05-14T03:12:54.244Z,58.18
2023-05-14T03:13:55.707Z,58.62
2023-05-14T03:14:57.288Z,58.45
2023-05-14T03:15:58.848Z,58.21
2023-05-14T03:17:00.454Z,58.35
2023-05-14T03:18:02.269Z,58.39
2023-05-14T03:19:04.094Z,58.55
2023-05-14T03:20:06.009Z,58.19
2023-05-14T03:21:10.152Z,58.11
2023-05-14T03:22:11.705Z,57.94
2023-05-14T03:23:13.261Z,58.11
2023-05-14T03:24:14.829Z,58.04
2023-05-14T03:25:16.403Z,58.13
2023-05-14T03:26:17.946Z,58.00
2023-05-14T03:27:22.008Z,58.10
2023-05-14T03:28:23.560Z,58.19
2023-05-14T03:29:25.054Z,57.92
2023-05-14T03:30:26.851Z,58.02
2023-05-14T03:31:28.531Z,57.87
2023-05-14T03:32:31.610Z,58.02
2023-05-14T03:33:33.801Z,58.04
2023-05-14T03:34:35.415Z,58.11
2023-05-14T03:35:36.925Z,58.08
2023-05-14T03:36:40.830Z,57.94
2023-05-14T03:37:42.352Z,58.14
2023-05-14T03:38:43.854Z,58.27
2023-05-14T03:39:45.470Z,58.25
2023-05-14T03:40:49.906Z,58.25
2023-05-14T03:41:51.634Z,58.10
2023-05-14T03:42:53.331Z,58.13
2023-05-14T03:43:54.860Z,58.22
2023-05-14T03:44:56.290Z,58.54
2023-05-14T03:45:58.213Z,58.56
2023-05-14T03:47:00.049Z,58.24
2023-05-14T03:48:01.659Z,58.42
2023-05-14T03:49:04.112Z,58.24
2023-05-14T03:50:06.296Z,58.22
2023-05-14T03:51:07.732Z,58.10
2023-05-14T03:52:10.823Z,58.23
2023-05-14T03:53:12.453Z,57.92
2023-05-14T03:54:13.964Z,57.79
2023-05-14T03:55:15.622Z,57.66
2023-05-14T03:56:17.548Z,57.76
2023-05-14T03:57:19.121Z,57.71
2023-05-14T03:58:20.648Z,57.87
2023-05-14T03:59:22.237Z,57.86
2023-05-14T04:00:23.837Z,58.20
2023-05-14T04:01:27.390Z,58.14
2023-05-14T04:02:29.017Z,58.31
2023-05-14T04:03:32.925Z,58.24
2023-05-14T04:04:34.729Z,58.21
2023-05-14T04:05:37.177Z,58.25
2023-05-14T04:06:38.953Z,58.01
2023-05-14T04:07:40.705Z,58.48
2023-05-14T04:08:42.202Z,58.42
2023-05-14T04:09:43.926Z,58.39
2023-05-14T04:10:46.540Z,58.35
2023-05-14T04:11:48.013Z,58.48
2023-05-14T04:12:52.194Z,58.57
2023-05-14T04:13:54.108Z,58.40
2023-05-14T04:14:56.629Z,58.53
2023-05-14T04:15:58.156Z,58.45
2023-05-14T04:17:00.377Z,58.60
2023-05-14T04:18:02.126Z,58.56
2023-05-14T04:19:05.640Z,58.73
2023-05-14T04:20:07.592Z,58.82
2023-05-14T04:21:09.117Z,58.73
2023-05-14T04:22:10.728Z,58.98
2023-05-14T04:23:12.320Z,59.06
2023-05-14T04:24:13.819Z,58.78
2023-05-14T04:25:15.437Z,58.82
2023-05-14T04:26:17.062Z,58.62
2023-05-14T04:27:21.784Z,58.76
2023-05-14T04:28:23.398Z,58.68
2023-05-14T04:29:27.440Z,58.66
2023-05-14T04:31:28.739Z,58.59
2023-05-14T04:32:32.350Z,58.56
2023-05-14T04:33:33.828Z,58.23
2023-05-14T04:34:35.551Z,58.34
2023-05-14T04:35:37.270Z,58.08
2023-05-14T04:36:38.719Z,58.03
2023-05-14T04:37:40.561Z,58.08
2023-05-14T04:38:42.078Z,57.97
2023-05-14T04:39:45.790Z,57.95
2023-05-14T04:40:49.749Z,57.89
2023-05-14T04:41:53.652Z,57.92
2023-05-14T04:42:55.247Z,57.96
2023-05-14T04:43:57.072Z,57.78
2023-05-14T04:44:58.706Z,57.77
2023-05-14T04:46:00.687Z,57.87
2023-05-14T04:47:02.797Z,57.79
2023-05-14T04:48:04.767Z,57.80
2023-05-14T04:49:06.272Z,57.59
2023-05-14T04:50:09.673Z,57.60
2023-05-14T04:51:11.300Z,57.77
2023-05-14T04:52:15.209Z,57.58
2023-05-14T04:53:16.738Z,57.83
2023-05-14T04:54:18.362Z,58.06
2023-05-14T04:55:19.840Z,58.22
2023-05-14T04:56:21.589Z,58.28
2023-05-14T04:57:23.273Z,58.27
2023-05-14T04:58:29.154Z,58.23
2023-05-14T04:59:33.070Z,58.34
2023-05-14T05:00:34.823Z,58.59
2023-05-14T05:01:36.315Z,58.42
2023-05-14T05:02:37.869Z,58.45
2023-05-14T05:03:39.475Z,58.33
2023-05-14T05:04:41.019Z,58.18
2023-05-14T05:05:44.605Z,58.28
2023-05-14T05:06:46.157Z,58.38
2023-05-14T05:07:49.993Z,58.10
2023-05-14T05:08:51.578Z,58.23
2023-05-14T05:09:53.158Z,58.40
2023-05-14T05:10:54.586Z,58.20
2023-05-14T05:11:58.265Z,58.29
2023-05-14T05:13:00.562Z,58.47
2023-05-14T05:14:02.117Z,58.34
2023-05-14T05:15:03.783Z,58.34
2023-05-14T05:16:05.632Z,58.12
2023-05-14T05:17:09.371Z,58.28
2023-05-14T05:18:10.862Z,58.14
2023-05-14T05:19:14.576Z,58.26
2023-05-14T05:20:18.650Z,58.36
2023-05-14T05:21:20.220Z,58.19
2023-05-14T05:22:21.844Z,58.29
2023-05-14T05:23:25.453Z,58.39
2023-05-14T05:24:26.968Z,58.15
2023-05-14T05:25:28.435Z,57.96
2023-05-14T05:26:29.883Z,58.31
2023-05-14T05:27:31.470Z,58.19
2023-05-14T05:28:32.965Z,58.56
2023-05-14T05:29:34.842Z,58.34
2023-05-14T05:30:36.460Z,58.19
2023-05-14T05:31:38.122Z,58.47
2023-05-14T05:32:39.756Z,58.32
2023-05-14T05:33:41.331Z,58.22
2023-05-14T05:34:45.681Z,58.22
2023-05-14T05:35:48.280Z,58.22
2023-05-14T05:36:52.020Z,57.97
2023-05-14T05:37:53.608Z,57.88
2023-05-14T05:38:55.404Z,57.88
2023-05-14T05:39:56.910Z,57.84
2023-05-14T05:41:00.662Z,58.00
2023-05-14T05:42:02.594Z,57.81
2023-05-14T05:43:04.136Z,57.88
2023-05-14T05:44:05.792Z,57.54
2023-05-14T05:45:09.993Z,57.61
2023-05-14T05:46:12.224Z,57.71
2023-05-14T05:47:13.772Z,57.62
2023-05-14T05:48:17.537Z,57.72
2023-05-14T05:49:18.968Z,57.69
2023-05-14T05:50:20.863Z,57.56
2023-05-14T05:51:22.466Z,57.41
2023-05-14T05:52:24.054Z,57.15
2023-05-14T05:53:25.724Z,56.99
2023-05-14T05:54:27.208Z,56.97
2023-05-14T05:55:28.988Z,56.89
2023-05-14T05:56:30.775Z,56.69
2023-05-14T05:57:32.267Z,56.75
2023-05-14T05:58:33.731Z,56.58
2023-05-14T05:59:35.248Z,56.26
2023-05-14T06:00:36.933Z,56.21
2023-05-14T06:01:43.432Z,56.26
2023-05-14T06:02:47.287Z,56.40
2023-05-14T06:03:48.928Z,56.44
2023-05-14T06:04:53.258Z,56.34
2023-05-14T06:05:55.017Z,56.68
2023-05-14T06:06:56.695Z,56.62
2023-05-14T06:07:58.249Z,56.75
2023-05-14T06:09:02.496Z,56.74
2023-05-14T06:10:06.876Z,56.67
2023-05-14T06:11:08.378Z,56.41
2023-05-14T06:12:10.061Z,56.64
2023-05-14T06:13:13.900Z,56.53
2023-05-14T06:14:20.830Z,56.78
2023-05-14T06:15:24.893Z,56.74
2023-05-14T06:16:28.746Z,56.75
2023-05-14T06:17:32.711Z,56.33
2023-05-14T06:18:34.479Z,56.49
2023-05-14T06:19:36.048Z,56.64
2023-05-14T06:20:41.362Z,56.35
2023-05-14T06:21:45.368Z,56.37
2023-05-14T06:22:46.873Z,56.11
2023-05-14T06:23:48.453Z,56.14
2023-05-14T06:24:52.177Z,56.31
2023-05-14T06:25:53.708Z,56.60
2023-05-14T06:26:55.413Z,56.62
2023-05-14T06:28:01.227Z,56.29
2023-05-14T06:29:02.761Z,56.42
2023-05-14T06:30:04.456Z,56.57
2023-05-14T06:31:09.151Z,56.25
2023-05-14T06:32:15.628Z,55.82
2023-05-14T06:33:19.317Z,55.52
2023-05-14T06:34:22.092Z,55.65
2023-05-14T06:35:26.607Z,55.40
2023-05-14T06:36:28.139Z,55.89
2023-05-14T06:37:29.967Z,55.95
2023-05-14T06:38:31.637Z,56.33
2023-05-14T06:39:33.155Z,56.01
2023-05-14T06:40:34.779Z,55.79
2023-05-14T06:41:36.282Z,55.62
2023-05-14T06:42:38.042Z,55.66
2023-05-14T06:43:42.103Z,55.58
2023-05-14T06:44:44.286Z,55.77
2023-05-14T06:45:48.454Z,55.51
2023-05-14T06:46:50.026Z,55.27
2023-05-14T06:47:51.656Z,55.13
2023-05-14T06:48:53.309Z,55.33
2023-05-14T06:49:58.643Z,55.13
2023-05-14T06:51:00.312Z,54.83
2023-05-14T06:52:01.889Z,54.92
2023-05-14T06:53:05.726Z,54.80
2023-05-14T06:54:10.115Z,54.84
2023-05-14T06:55:11.628Z,54.68
2023-05-14T06:56:15.315Z,54.50
2023-05-14T06:57:16.792Z,54.47
2023-05-14T06:58:18.348Z,54.01
2023-05-14T06:59:19.932Z,54.57
2023-05-14T07:00:21.983Z,54.47
2023-05-14T07:01:23.963Z,54.69
2023-05-14T07:02:25.584Z,54.79
2023-05-14T07:03:27.252Z,54.37
2023-05-14T07:04:28.866Z,54.19
2023-05-14T07:05:30.606Z,53.92
2023-05-14T07:06:32.557Z,53.87
2023-05-14T07:07:34.010Z,53.91
2023-05-14T07:08:36.153Z,54.05
2023-05-14T07:09:37.683Z,54.13
2023-05-14T07:10:39.264Z,54.23
2023-05-14T07:11:40.840Z,53.88
2023-05-14T07:12:42.451Z,53.83
2023-05-14T07:13:44.035Z,53.71
2023-05-14T07:14:46.549Z,53.98
2023-05-14T07:15:48.054Z,53.88
2023-05-14T07:16:49.601Z,53.66
2023-05-14T07:17:51.323Z,53.66
2023-05-14T07:18:52.982Z,54.17
2023-05-14T07:19:55.942Z,54.16
2023-05-14T07:20:57.566Z,54.19
2023-05-14T07:21:59.107Z,54.11
2023-05-14T07:23:00.719Z,54.28
2023-05-14T07:24:02.352Z,53.95
2023-05-14T07:25:03.917Z,53.59
2023-05-14T07:26:05.948Z,53.69
2023-05-14T07:27:10.175Z,53.09
2023-05-14T07:28:11.613Z,52.97
2023-05-14T07:29:13.155Z,53.13
2023-05-14T07:30:14.872Z,52.81
2023-05-14T07:31:19.050Z,53.14
2023-05-14T07:32:20.625Z,52.79
2023-05-14T07:33:22.493Z,52.86
2023-05-14T07:34:26.452Z,52.73
2023-05-14T07:35:27.962Z,52.65
2023-05-14T07:36:29.557Z,52.74
2023-05-14T07:37:31.058Z,52.59
2023-05-14T07:38:32.709Z,52.52
2023-05-14T07:39:37.589Z,52.65
2023-05-14T07:40:39.154Z,52.86
2023-05-14T07:41:40.700Z,52.68
2023-05-14T07:42:42.266Z,52.45
2023-05-14T07:43:43.801Z,52.47
2023-05-14T07:44:46.082Z,52.44
2023-05-14T07:45:47.601Z,52.54
2023-05-14T07:46:53.808Z,52.53
2023-05-14T07:47:55.437Z,52.72
2023-05-14T07:48:57.014Z,52.77
2023-05-14T07:49:58.781Z,53.22
2023-05-14T07:51:02.358Z,52.88
2023-05-14T07:52:03.980Z,53.20
2023-05-14T07:53:05.458Z,53.31
2023-05-14T07:54:07.032Z,53.53
2023-05-14T07:55:08.788Z,53.18
2023-05-14T07:56:10.546Z,53.09
2023-05-14T07:57:14.383Z,53.01
2023-05-14T07:58:18.263Z,53.43
2023-05-14T07:59:21.902Z,53.48
2023-05-14T08:00:23.783Z,53.73
2023-05-14T08:01:26.338Z,53.63
2023-05-14T08:02:28.570Z,54.07
2023-05-14T08:03:35.178Z,54.14
2023-05-14T08:04:36.965Z,54.28
2023-05-14T08:05:41.712Z,54.24
2023-05-14T08:06:43.305Z,54.26
2023-05-14T08:07:44.930Z,54.00
2023-05-14T08:08:46.734Z,53.93
2023-05-14T08:09:48.186Z,54.03
2023-05-14T08:10:50.924Z,54.19
2023-05-14T08:11:52.507Z,54.18
2023-05-14T08:12:53.949Z,54.37
2023-05-14T08:13:55.670Z,54.55
2023-05-14T08:14:59.646Z,54.52
2023-05-14T08:16:01.265Z,54.79
2023-05-14T08:17:03.437Z,54.90
2023-05-14T08:18:04.984Z,54.63
2023-05-14T08:19:06.630Z,54.57
2023-05-14T08:20:09.026Z,54.67
2023-05-14T08:21:10.653Z,54.42
2023-05-14T08:22:12.221Z,54.83
2023-05-14T08:23:13.799Z,54.88
2023-05-14T08:24:15.237Z,54.80
2023-05-14T08:25:18.806Z,54.69
2023-05-14T08:26:21.723Z,54.80
2023-05-14T08:27:23.257Z,54.51
2023-05-14T08:28:24.704Z,54.44
2023-05-14T08:29:26.254Z,54.48
2023-05-14T08:30:28.126Z,54.28
2023-05-14T08:31:30.018Z,54.10
2023-05-14T08:33:28.560Z,53.68
2023-05-14T08:34:32.501Z,53.84
2023-05-14T08:35:34.131Z,54.09
2023-05-14T08:36:35.806Z,53.79
2023-05-14T08:37:37.363Z,54.22
2023-05-14T08:38:38.957Z,54.25
2023-05-14T08:39:42.552Z,53.98
2023-05-14T08:40:51.232Z,53.63
2023-05-14T08:41:53.808Z,53.59
2023-05-14T08:43:00.647Z,53.23
2023-05-14T08:44:09.275Z,53.67
2023-05-14T08:45:18.107Z,53.69
2023-05-14T08:46:24.318Z,53.60
2023-05-14T08:47:26.289Z,53.64
2023-05-14T08:48:33.408Z,53.86
2023-05-14T08:49:42.736Z,53.48
2023-05-14T08:50:44.563Z,52.64
2023-05-14T08:51:49.538Z,52.62
2023-05-14T08:52:52.030Z,52.96
2023-05-14T08:54:02.184Z,52.66
2023-05-14T08:55:05.635Z,52.56
2023-05-14T08:56:08.495Z,52.19
2023-05-14T08:57:13.098Z,52.05
2023-05-14T08:58:17.810Z,51.77
2023-05-14T08:59:20.103Z,51.68
2023-05-14T09:00:23.080Z,51.63
2023-05-14T09:01:25.732Z,51.41
2023-05-14T09:02:33.741Z,51.59
2023-05-14T09:03:36.954Z,51.58
2023-05-14T09:04:39.754Z,50.71
2023-05-14T09:05:41.595Z,50.92
2023-05-14T09:06:46.161Z,50.90
2023-05-14T09:07:48.174Z,50.53
2023-05-14T09:08:49.973Z,50.95
2023-05-14T09:09:52.647Z,51.07
2023-05-14T09:10:59.414Z,50.79
2023-05-14T09:12:01.632Z,50.29
2023-05-14T09:13:03.844Z,50.40
2023-05-14T09:14:05.497Z,50.45
2023-05-14T09:15:07.346Z,50.89
2023-05-14T09:16:08.963Z,50.73
2023-05-14T09:17:12.468Z,51.58
2023-05-14T09:18:14.140Z,50.76
2023-05-14T09:19:18.862Z,50.95
2023-05-14T09:20:21.419Z,50.67
2023-05-14T09:21:23.397Z,50.47
2023-05-14T09:22:25.155Z,50.34
2023-05-14T09:23:26.744Z,50.49
2023-05-14T09:24:31.605Z,50.62
2023-05-14T09:25:33.598Z,50.63
2023-05-14T09:26:35.665Z,50.12
2023-05-14T09:27:37.972Z,50.43
2023-05-14T09:28:41.660Z,49.89
2023-05-14T09:29:47.420Z,50.37
2023-05-14T09:30:52.200Z,50.36
2023-05-14T09:31:56.960Z,50.07
2023-05-14T09:32:58.694Z,50.47
2023-05-14T09:34:00.635Z,50.63
2023-05-14T09:35:10.383Z,50.17
2023-05-14T09:36:14.242Z,50.58
2023-05-14T09:37:15.770Z,50.65
2023-05-14T09:38:17.377Z,50.29
2023-05-14T09:39:19.571Z,50.87
2023-05-14T09:40:25.619Z,50.74
2023-05-14T09:41:27.360Z,51.05
2023-05-14T09:42:28.901Z,51.79
2023-05-14T09:43:30.524Z,51.29
2023-05-14T09:44:32.262Z,51.04
2023-05-14T09:45:35.537Z,51.45
2023-05-14T09:46:37.314Z,51.20
2023-05-14T09:47:44.983Z,51.21
2023-05-14T09:48:47.075Z,50.84
2023-05-14T09:49:48.766Z,51.32
2023-05-14T09:50:51.582Z,51.02
2023-05-14T09:51:53.425Z,51.07
2023-05-14T09:52:55.551Z,51.28
2023-05-14T09:54:00.515Z,50.95
2023-05-14T09:55:02.569Z,51.05
2023-05-14T09:56:04.440Z,50.79
2023-05-14T09:57:06.187Z,50.61
2023-05-14T09:58:07.752Z,50.90
2023-05-14T09:59:11.600Z,50.37
2023-05-14T10:00:16.144Z,50.08
2023-05-14T10:01:20.201Z,49.69
2023-05-14T10:02:27.404Z,49.42
2023-05-14T10:03:30.323Z,49.64
2023-05-14T10:04:34.216Z,49.41
2023-05-14T10:05:37.187Z,49.40
2023-05-14T10:06:42.038Z,49.38
2023-05-14T10:07:49.457Z,49.30
2023-05-14T10:08:55.144Z,49.12
2023-05-14T10:10:01.931Z,49.00
2023-05-14T10:11:10.536Z,49.36
2023-05-14T10:12:16.559Z,48.97
2023-05-14T10:13:24.484Z,48.68
2023-05-14T10:14:49.739Z,48.08
2023-05-14T10:16:06.119Z,48.59
2023-05-14T10:17:18.402Z,48.16
2023-05-14T10:18:23.508Z,48.18
2023-05-14T10:19:33.216Z,48.24
2023-05-14T10:20:36.704Z,47.87
2023-05-14T10:21:41.124Z,47.52
2023-05-14T10:22:42.886Z,47.15
2023-05-14T10:23:47.314Z,47.41
2023-05-14T10:24:52.411Z,48.50
2023-05-14T10:25:54.099Z,48.34
2023-05-14T10:26:56.517Z,48.24
2023-05-14T10:27:58.526Z,47.95
2023-05-14T10:29:00.340Z,47.34
2023-05-14T10:30:10.111Z,47.40
2023-05-14T10:31:13.148Z,47.03
2023-05-14T10:32:16.410Z,46.94
2023-05-14T10:33:18.882Z,46.61
2023-05-14T10:34:41.163Z,47.32
2023-05-14T10:35:54.965Z,47.37
2023-05-14T10:37:02.373Z,47.34
2023-05-14T10:38:08.549Z,46.55
2023-05-14T10:39:10.140Z,46.74
2023-05-14T10:40:12.471Z,46.99
2023-05-14T10:41:17.690Z,46.51
2023-05-14T10:42:24.254Z,46.58
2023-05-14T10:43:29.303Z,46.63
2023-05-14T10:44:35.109Z,46.20
2023-05-14T10:45:39.926Z,45.59
2023-05-14T10:46:41.632Z,45.23
2023-05-14T10:47:44.359Z,45.76
2023-05-14T10:48:46.190Z,45.04
2023-05-14T10:49:50.512Z,44.70
2023-05-14T10:50:55.520Z,44.61
2023-05-14T10:51:57.265Z,44.67
2023-05-14T10:52:58.953Z,44.76
2023-05-14T10:54:01.712Z,44.14
2023-05-14T10:55:11.882Z,44.42
2023-05-14T10:56:14.544Z,44.29
2023-05-14T10:57:17.923Z,44.34
2023-05-14T10:58:22.124Z,44.72
2023-05-14T10:59:27.615Z,44.41
2023-05-14T11:00:29.335Z,44.67
2023-05-14T11:01:31.862Z,45.54
2023-05-14T11:02:39.754Z,45.17
2023-05-14T11:03:45.291Z,45.26
2023-05-14T11:04:59.319Z,45.75
2023-05-14T11:06:05.690Z,45.67
2023-05-14T11:07:08.064Z,45.70
2023-05-14T11:08:15.773Z,46.08
2023-05-14T11:09:17.734Z,45.25
2023-05-14T11:10:21.969Z,45.30
2023-05-14T11:11:26.103Z,45.05
2023-05-14T11:12:28.961Z,45.69
2023-05-14T11:13:30.772Z,45.19
2023-05-14T11:14:34.769Z,45.70
2023-05-14T11:15:37.224Z,45.53
2023-05-14T11:16:39.285Z,45.59
2023-05-14T11:17:42.429Z,45.80
2023-05-14T11:18:44.086Z,45.44
2023-05-14T11:19:45.939Z,43.17
2023-05-14T11:20:47.739Z,42.10
2023-05-14T11:21:49.567Z,41.51
2023-05-14T11:22:54.417Z,41.61
2023-05-14T11:23:56.820Z,41.28
2023-05-14T11:25:00.653Z,40.88
2023-05-14T11:26:04.946Z,40.99
2023-05-14T11:27:10.508Z,40.47
2023-05-14T11:28:12.250Z,40.71
2023-05-14T11:29:13.797Z,41.45
2023-05-14T11:30:17.586Z,40.71
2023-05-14T11:31:19.425Z,40.85
2023-05-14T11:32:21.238Z,41.38
2023-05-14T11:33:27.812Z,40.45
2023-05-14T11:34:29.763Z,41.24
2023-05-14T11:35:31.632Z,40.61
2023-05-14T11:36:33.255Z,39.53
2023-05-14T11:37:34.873Z,39.31
2023-05-14T11:38:49.151Z,39.63
2023-05-14T11:39:52.410Z,39.92
2023-05-14T11:40:58.541Z,39.66
2023-05-14T11:42:03.666Z,39.45
2023-05-14T11:43:05.464Z,39.47
2023-05-14T11:44:09.061Z,39.34
2023-05-14T11:45:24.310Z,39.32
2023-05-14T11:46:26.242Z,39.00
2023-05-14T11:47:29.561Z,39.17
2023-05-14T11:48:32.084Z,38.45
2023-05-14T11:50:37.702Z,38.54
2023-05-14T11:51:41.670Z,38.77
2023-05-14T11:52:43.704Z,38.36
2023-05-14T11:53:48.480Z,38.72
2023-05-14T11:54:52.270Z,38.35
2023-05-14T11:55:55.126Z,38.32
2023-05-14T11:57:00.112Z,38.68
2023-05-14T11:58:02.175Z,38.94
2023-05-14T11:59:03.798Z,38.59
2023-05-14T12:00:08.132Z,38.54
2023-05-14T12:01:13.548Z,38.39
2023-05-14T12:02:18.206Z,37.87
2023-05-14T12:03:26.298Z,37.87
2023-05-14T12:04:29.443Z,38.41
2023-05-14T12:05:31.261Z,38.02
2023-05-14T12:06:35.352Z,37.64
2023-05-14T12:07:37.183Z,37.21
2023-05-14T12:08:38.834Z,37.90
2023-05-14T12:09:43.638Z,37.28
2023-05-14T12:10:49.383Z,37.48
2023-05-14T12:11:52.356Z,36.90
2023-05-14T12:12:54.446Z,37.15
2023-05-14T12:13:56.020Z,37.34
2023-05-14T12:14:59.987Z,37.03
2023-05-14T12:16:02.653Z,36.92
2023-05-14T12:17:11.853Z,37.30
2023-05-14T12:18:23.927Z,37.06
2023-05-14T12:19:26.652Z,37.33
2023-05-14T12:20:29.621Z,37.60
2023-05-14T12:21:31.971Z,37.79
2023-05-14T12:22:36.398Z,37.27
2023-05-14T12:23:39.108Z,36.51
2023-05-14T12:24:41.221Z,36.27
2023-05-14T12:25:52.772Z,36.29
2023-05-14T12:26:55.526Z,36.69
2023-05-14T12:27:57.168Z,37.27
2023-05-14T12:29:03.426Z,37.19
2023-05-14T12:30:20.564Z,37.58
2023-05-14T12:31:30.421Z,36.86
2023-05-14T12:32:33.386Z,36.34
2023-05-14T12:33:37.412Z,36.56
2023-05-14T12:34:39.248Z,36.54
2023-05-14T12:35:41.613Z,36.25
2023-05-14T12:36:44.146Z,36.45
2023-05-14T12:37:46.037Z,36.22
2023-05-14T12:38:47.943Z,36.03
2023-05-14T12:39:49.764Z,35.95
2023-05-14T12:40:51.298Z,36.42
2023-05-14T12:41:52.939Z,35.42
2023-05-14T12:42:56.633Z,35.44
2023-05-14T12:43:59.164Z,35.70
2023-05-14T12:45:05.558Z,35.70
2023-05-14T12:46:07.191Z,36.13
2023-05-14T12:47:08.952Z,36.17
2023-05-14T12:48:10.770Z,35.71
2023-05-14T12:49:12.493Z,35.22
2023-05-14T12:50:14.071Z,35.11
2023-05-14T12:51:15.711Z,35.52
2023-05-14T12:52:29.492Z,35.65
2023-05-14T12:53:38.915Z,35.34
2023-05-14T12:54:43.457Z,35.90
2023-05-14T12:55:49.654Z,34.98
2023-05-14T12:56:51.304Z,34.52
2023-05-14T12:57:53.438Z,34.74
2023-05-14T12:58:56.389Z,34.95
2023-05-14T12:59:58.124Z,35.26
2023-05-14T13:00:59.784Z,35.05
2023-05-14T13:02:03.668Z,34.29
2023-05-14T13:03:05.411Z,35.05
2023-05-14T13:04:07.920Z,35.08
2023-05-14T13:05:09.634Z,34.70
2023-05-14T13:06:11.201Z,35.22
2023-05-14T13:07:13.232Z,35.23
2023-05-14T13:08:17.816Z,35.96
2023-05-14T13:09:19.418Z,35.55
2023-05-14T13:10:21.134Z,35.04
2023-05-14T13:11:22.734Z,35.08
2023-05-14T13:12:24.391Z,35.02
2023-05-14T13:13:26.260Z,34.69
2023-05-14T13:14:27.817Z,34.77
2023-05-14T13:15:31.505Z,34.87
2023-05-14T13:16:33.264Z,34.95
2023-05-14T13:17:35.822Z,34.91
2023-05-14T13:18:37.397Z,34.36
2023-05-14T13:19:39.084Z,34.09
2023-05-14T13:20:43.097Z,33.61
2023-05-14T13:21:49.793Z,32.61
2023-05-14T13:22:51.436Z,32.51
2023-05-14T13:23:55.612Z,32.99
2023-05-14T13:24:57.213Z,33.54
2023-05-14T13:26:01.060Z,33.40
2023-05-14T13:27:02.705Z,33.53
2023-05-14T13:28:04.540Z,33.78
2023-05-14T13:29:06.768Z,33.60
2023-05-14T13:30:08.820Z,33.14
2023-05-14T13:31:12.734Z,33.21
2023-05-14T13:32:14.361Z,33.67
2023-05-14T13:33:20.691Z,33.20
2023-05-14T13:34:22.342Z,33.24
2023-05-14T13:35:24.090Z,33.62